createdAt,value
2019-06-10T00:00:21.770Z,-146
2019-06-10T00:09:58.132Z,-143
2019-06-10T00:12:57.302Z,-139
2019-06-10T00:14:28.657Z,-141
2019-06-10T00:14:58.433Z,-144
2019-06-10T00:15:27.395Z,-144
2019-06-10T00:15:58.502Z,-149
2019-06-10T00:16:27.908Z,-139
2019-06-10T00:16:59.334Z,-143
2019-06-10T00:17:27.798Z,-143
2019-06-10T00:18:18.356Z,-141
2019-06-10T00:18:34.965Z,-144
2019-06-10T00:18:57.981Z,-144
2019-06-10T00:19:28.381Z,-146
2019-06-10T00:19:57.831Z,-146
2019-06-10T00:20:27.971Z,-146
2019-06-10T00:20:59.262Z,-146
2019-06-10T00:21:30.670Z,-146
2019-06-10T00:21:59.827Z,-139
2019-06-10T00:22:28.244Z,-139
2019-06-10T00:22:59.167Z,-145
2019-06-10T00:23:28.395Z,-145
2019-06-10T00:23:59.936Z,-144
2019-06-10T00:24:31.320Z,-143
2019-06-10T00:24:58.218Z,-141
2019-06-10T00:25:28.222Z,-141
2019-06-10T00:26:01.209Z,-138
2019-06-10T00:26:01.209Z,-138
2019-06-10T00:26:30.718Z,-143
2019-06-10T00:27:00.226Z,-145
2019-06-10T00:27:31.129Z,-144
2019-06-10T00:28:00.388Z,-144
2019-06-10T00:28:31.086Z,-144
2019-06-10T00:28:59.991Z,-139
2019-06-10T00:29:31.093Z,-139
2019-06-10T00:30:02.468Z,-145
2019-06-10T00:30:02.468Z,-145
2019-06-10T00:30:31.249Z,-145
2019-06-10T00:30:31.293Z,-140
2019-06-10T00:31:00.835Z,-146
2019-06-10T00:31:01.108Z,-146
2019-06-10T00:31:31.215Z,-146
2019-06-10T00:32:03.161Z,-138
2019-06-10T00:32:31.973Z,-144
2019-06-10T00:32:31.973Z,-144
2019-06-10T00:33:01.000Z,-144
2019-06-10T00:33:01.000Z,-144
2019-06-10T00:33:30.862Z,-142
2019-06-10T00:34:02.643Z,-141
2019-06-10T00:34:31.268Z,-144
2019-06-10T00:35:01.884Z,-139
2019-06-10T00:35:31.457Z,-139
2019-06-10T00:36:02.240Z,-144
2019-06-10T00:36:30.838Z,-143
2019-06-10T00:37:02.587Z,-147
2019-06-10T00:37:31.486Z,-145
2019-06-10T00:38:01.966Z,-145
2019-06-10T00:38:31.803Z,-143
2019-06-10T00:39:02.383Z,-143
2019-06-10T00:39:31.246Z,-146
2019-06-10T00:40:02.530Z,-143
2019-06-10T00:40:02.530Z,-140
2019-06-10T00:40:31.678Z,-149
2019-06-10T00:41:03.621Z,-141
2019-06-10T00:41:31.231Z,-144
2019-06-10T00:42:03.035Z,-144
2019-06-10T00:42:31.387Z,-146
2019-06-10T00:43:02.545Z,-140
2019-06-10T00:43:30.744Z,-145
2019-06-10T00:44:02.389Z,-145
2019-06-10T00:44:31.156Z,-146
2019-06-10T00:45:02.883Z,-145
2019-06-10T00:45:31.606Z,-145
2019-06-10T00:46:03.991Z,-144
2019-06-10T00:46:31.616Z,-140
2019-06-10T00:47:02.896Z,-140
2019-06-10T00:47:30.886Z,-141
2019-06-10T00:48:12.193Z,-141
2019-06-10T00:48:32.263Z,-142
2019-06-10T00:49:03.958Z,-142
2019-06-10T00:49:31.731Z,-148
2019-06-10T00:50:03.804Z,-148
2019-06-10T00:50:30.959Z,-140
2019-06-10T00:51:02.856Z,-142
2019-06-10T00:51:31.449Z,-141
2019-06-10T00:52:02.999Z,-145
2019-06-10T00:52:31.305Z,-146
2019-06-10T00:53:02.898Z,-145
2019-06-10T00:53:31.772Z,-139
2019-06-10T00:54:03.032Z,-142
2019-06-10T00:54:31.592Z,-141
2019-06-10T00:55:03.239Z,-144
2019-06-10T00:55:31.657Z,-148
2019-06-10T00:56:03.856Z,-145
2019-06-10T00:56:31.463Z,-145
2019-06-10T00:57:02.796Z,-142
2019-06-10T00:57:31.554Z,-147
2019-06-10T00:58:02.882Z,-147
2019-06-10T00:58:32.048Z,-147
2019-06-10T00:59:02.409Z,-146
2019-06-10T00:59:31.549Z,-145
2019-06-10T01:00:12.007Z,-145
2019-06-10T01:00:32.298Z,-145
2019-06-10T01:01:02.610Z,-146
2019-06-10T01:01:32.107Z,-146
2019-06-10T01:02:03.298Z,-147
2019-06-10T01:02:32.427Z,-147
2019-06-10T01:03:02.471Z,-143
2019-06-10T01:03:32.170Z,-145
2019-06-10T01:10:04.687Z,-147
2019-06-10T01:27:35.971Z,-141
2019-06-10T01:30:12.272Z,-140
2019-06-10T01:32:07.085Z,-141
2019-06-10T01:32:35.827Z,-141
2019-06-10T01:34:06.011Z,-146
2019-06-10T01:35:06.503Z,-145
2019-06-10T01:35:35.908Z,-146
2019-06-10T01:36:05.892Z,-146
2019-06-10T01:36:36.206Z,-149
2019-06-10T01:37:06.845Z,-141
2019-06-10T01:38:06.084Z,-140
2019-06-10T01:39:06.907Z,-148
2019-06-10T01:40:06.321Z,-144
2019-06-10T01:40:36.119Z,-144
2019-06-10T01:41:06.164Z,-149
2019-06-10T01:41:36.446Z,-146
2019-06-10T01:42:06.296Z,-142
2019-06-10T01:42:36.270Z,-140
2019-06-10T01:43:06.377Z,-140
2019-06-10T01:43:36.823Z,-143
2019-06-10T01:44:06.809Z,-148
2019-06-10T01:44:36.597Z,-145
2019-06-10T01:45:06.580Z,-145
2019-06-10T01:45:36.499Z,-144
2019-06-10T01:46:07.090Z,-140
2019-06-10T01:46:36.974Z,-147
2019-06-10T01:47:06.841Z,-147
2019-06-10T01:47:36.881Z,-142
2019-06-10T01:48:06.889Z,-139
2019-06-10T01:48:43.895Z,-145
2019-06-10T01:49:07.101Z,-145
2019-06-10T01:49:36.862Z,-142
2019-06-10T01:50:07.036Z,-146
2019-06-10T01:50:37.409Z,-146
2019-06-10T01:51:07.150Z,-145
2019-06-10T01:51:36.915Z,-145
2019-06-10T01:52:07.261Z,-146
2019-06-10T01:52:41.085Z,-146
2019-06-10T01:53:13.639Z,-139
2019-06-10T01:53:37.420Z,-139
2019-06-10T01:54:07.455Z,-148
2019-06-10T01:54:37.290Z,-148
2019-06-10T01:55:08.102Z,-149
2019-06-10T01:55:37.848Z,-147
2019-06-10T01:56:07.780Z,-142
2019-06-10T01:56:37.679Z,-141
2019-06-10T01:57:10.330Z,-146
2019-06-10T01:57:38.534Z,-145
2019-06-10T01:58:07.910Z,-145
2019-06-10T01:58:40.525Z,-146
2019-06-10T01:59:10.927Z,-146
2019-06-10T01:59:38.159Z,-147
2019-06-10T02:00:09.841Z,-147
2019-06-10T02:00:38.349Z,-147
2019-06-10T02:01:08.854Z,-143
2019-06-10T02:01:38.510Z,-143
2019-06-10T02:02:09.702Z,-145
2019-06-10T02:02:38.366Z,-145
2019-06-10T02:03:08.885Z,-145
2019-06-10T02:03:40.988Z,-144
2019-06-10T02:04:08.693Z,-144
2019-06-10T02:04:40.990Z,-139
2019-06-10T02:05:11.491Z,-143
2019-06-10T02:05:41.737Z,-143
2019-06-10T02:06:11.574Z,-141
2019-06-10T02:06:40.575Z,-145
2019-06-10T02:07:11.913Z,-140
2019-06-10T02:10:11.788Z,-145
2019-06-10T02:10:41.376Z,-141
2019-06-10T02:11:12.281Z,-144
2019-06-10T02:11:41.356Z,-143
2019-06-10T02:12:12.111Z,-147
2019-06-10T02:12:41.539Z,-143
2019-06-10T02:13:11.440Z,-143
2019-06-10T02:13:40.919Z,-146
2019-06-10T02:14:12.863Z,-147
2019-06-10T02:14:41.512Z,-147
2019-06-10T02:15:11.726Z,-142
2019-06-10T02:15:41.010Z,-141
2019-06-10T02:16:12.707Z,-139
2019-06-10T02:16:41.419Z,-139
2019-06-10T02:17:10.296Z,-147
2019-06-10T02:17:41.676Z,-139
2019-06-10T02:18:11.691Z,-143
2019-06-10T02:18:41.041Z,-141
2019-06-10T02:19:12.863Z,-143
2019-06-10T02:19:41.397Z,-144
2019-06-10T02:20:10.668Z,-146
2019-06-10T02:20:41.196Z,-141
2019-06-10T02:21:12.967Z,-141
2019-06-10T02:21:41.677Z,-143
2019-06-10T02:22:10.741Z,-146
2019-06-10T02:22:41.069Z,-146
2019-06-10T02:23:11.419Z,-143
2019-06-10T02:23:41.177Z,-139
2019-06-10T02:24:12.577Z,-141
2019-06-10T02:24:41.639Z,-141
2019-06-10T02:25:10.928Z,-143
2019-06-10T02:25:41.184Z,-143
2019-06-10T02:40:14.318Z,-149
2019-06-10T02:40:43.190Z,-149
2019-06-10T02:41:16.249Z,-147
2019-06-10T02:41:44.509Z,-147
2019-06-10T02:42:15.308Z,-147
2019-06-10T02:42:43.529Z,-146
2019-06-10T02:43:16.015Z,-142
2019-06-10T02:43:44.001Z,-141
2019-06-10T02:44:16.901Z,-141
2019-06-10T02:44:44.391Z,-140
2019-06-10T02:45:14.970Z,-148
2019-06-10T02:45:44.421Z,-148
2019-06-10T02:46:13.580Z,-148
2019-06-10T02:46:43.798Z,-143
2019-06-10T02:47:14.216Z,-145
2019-06-10T02:47:44.254Z,-145
2019-06-10T02:48:13.579Z,-142
2019-06-10T02:48:43.576Z,-142
2019-06-10T02:49:22.790Z,-142
2019-06-10T02:49:47.856Z,-146
2019-06-10T02:50:14.851Z,-141
2019-06-10T02:50:44.063Z,-141
2019-06-10T02:51:13.476Z,-143
2019-06-10T02:51:43.558Z,-143
2019-06-10T02:52:13.834Z,-143
2019-06-10T02:52:44.278Z,-143
2019-06-10T02:53:13.396Z,-143
2019-06-10T02:53:43.340Z,-145
2019-06-10T03:10:21.202Z,-147
2019-06-10T03:10:50.199Z,-143
2019-06-10T03:11:21.889Z,-143
2019-06-10T03:11:53.285Z,-138
2019-06-10T03:12:20.145Z,-144
2019-06-10T03:12:52.283Z,-140
2019-06-10T03:13:22.371Z,-139
2019-06-10T03:13:53.024Z,-139
2019-06-10T03:14:22.553Z,-146
2019-06-10T03:15:20.393Z,-148
2019-06-10T03:15:52.175Z,-145
2019-06-10T03:16:22.210Z,-142
2019-06-10T03:16:52.673Z,-142
2019-06-10T03:17:20.250Z,-144
2019-06-10T03:17:52.115Z,-140
2019-06-10T03:18:22.330Z,-140
2019-06-10T03:18:52.501Z,-139
2019-06-10T03:19:37.970Z,-139
2019-06-10T03:19:53.024Z,-141
2019-06-10T03:20:25.927Z,-138
2019-06-10T03:20:52.839Z,-142
2019-06-10T03:26:24.301Z,-149
2019-06-10T03:30:58.892Z,-143
2019-06-10T03:33:54.477Z,-140
2019-06-10T03:34:30.663Z,-140
2019-06-10T03:34:54.730Z,-140
2019-06-10T03:38:58.439Z,-146
2019-06-10T03:39:57.635Z,-149
2019-06-10T03:41:58.780Z,-131
2019-06-10T03:43:54.889Z,-125
2019-06-10T03:44:55.786Z,-125
2019-06-10T03:45:27.164Z,-124
2019-06-10T03:45:56.410Z,-124
2019-06-10T03:46:27.219Z,-121
2019-06-10T03:46:56.429Z,-124
2019-06-10T03:47:28.479Z,-122
2019-06-10T03:47:56.948Z,-121
2019-06-10T03:48:27.162Z,-121
2019-06-10T03:48:56.746Z,-125
2019-06-10T03:49:28.741Z,-123
2019-06-10T03:49:57.121Z,-118
2019-06-10T03:53:01.199Z,-131
2019-06-10T03:53:29.926Z,-117
2019-06-10T03:53:59.625Z,-107
2019-06-10T03:54:29.623Z,-105
2019-06-10T03:54:59.687Z,-105
2019-06-10T03:55:29.691Z,-105
2019-06-10T03:56:02.056Z,-106
2019-06-10T04:00:37.115Z,-106
2019-06-10T04:00:37.116Z,-106
2019-06-10T04:01:07.178Z,-106
2019-06-10T04:01:39.171Z,-108
2019-06-10T04:02:12.762Z,-111
2019-06-10T04:02:42.963Z,-104
2019-06-10T04:03:15.911Z,-107
2019-06-10T04:03:17.251Z,-108
2019-06-10T04:03:46.484Z,-108
2019-06-10T04:04:17.361Z,-114
2019-06-10T04:05:23.822Z,-110
2019-06-10T04:05:53.765Z,-109
2019-06-10T04:06:27.058Z,-111
2019-06-10T04:06:27.058Z,-111
2019-06-10T04:06:58.043Z,-116
2019-06-10T04:07:31.032Z,-111
2019-06-10T04:08:02.114Z,-109
2019-06-10T04:08:33.012Z,-149
2019-06-10T04:09:04.093Z,-146
2019-06-10T04:09:35.843Z,-126
2019-06-10T04:10:46.697Z,-99
2019-06-10T04:10:46.699Z,-101
2019-06-10T04:11:03.271Z,-97
2019-06-10T04:11:03.280Z,-102
2019-06-10T04:12:06.883Z,-104
2019-06-10T04:12:39.194Z,-99
2019-06-10T04:13:13.173Z,-101
2019-06-10T04:13:43.042Z,-87
2019-06-10T04:14:15.417Z,-87
2019-06-10T04:14:46.642Z,-85
2019-06-10T04:14:46.662Z,-83
2019-06-10T04:15:18.148Z,-83
2019-06-10T04:15:50.457Z,-84
2019-06-10T04:16:22.556Z,-81
2019-06-10T04:16:52.491Z,-83
2019-06-10T04:17:56.198Z,-79
2019-06-10T04:18:29.430Z,-81
2019-06-10T04:19:32.886Z,-81
2019-06-10T04:20:11.266Z,-83
2019-06-10T04:20:36.887Z,-92
2019-06-10T04:21:08.056Z,-86
2019-06-10T04:21:39.899Z,-82
2019-06-10T04:22:13.002Z,-82
2019-06-10T04:22:44.578Z,-87
2019-06-10T04:23:13.222Z,-86
2019-06-10T04:23:44.405Z,-84
2019-06-10T04:25:14.382Z,-87
2019-06-10T04:25:44.938Z,-146
2019-06-10T04:26:14.865Z,-113
2019-06-10T04:26:44.588Z,-115
2019-06-10T04:28:14.865Z,-73
2019-06-10T04:30:32.472Z,-62
2019-06-10T04:31:45.176Z,-50
2019-06-10T04:32:49.865Z,-38
2019-06-10T04:32:49.867Z,-34
2019-06-10T04:33:20.725Z,-36
2019-06-10T04:33:48.951Z,-35
2019-06-10T04:34:18.554Z,-28
2019-06-10T04:34:53.657Z,-22
2019-06-10T04:35:22.986Z,-20
2019-06-10T04:35:51.943Z,-13
2019-06-10T04:38:23.302Z,-9
2019-06-10T04:38:57.062Z,-17
2019-06-10T04:42:18.422Z,-26
2019-06-10T04:42:18.422Z,-25
2019-06-10T04:42:38.601Z,-24
2019-06-10T04:42:38.608Z,-22
2019-06-10T04:43:02.976Z,-120
2019-06-10T04:43:32.806Z,-138
2019-06-10T04:44:02.782Z,-52
2019-06-10T04:44:33.068Z,-46
2019-06-10T04:44:58.600Z,6
2019-06-10T04:44:58.611Z,5
2019-06-10T04:45:29.167Z,9
2019-06-10T04:45:59.005Z,10
2019-06-10T04:45:59.010Z,7
2019-06-10T04:46:29.600Z,6
2019-06-10T04:46:29.600Z,3
2019-06-10T04:48:32.578Z,19
2019-06-10T04:49:04.328Z,22
2019-06-10T04:49:32.794Z,19
2019-06-10T04:50:18.394Z,25
2019-06-10T04:50:42.119Z,23
2019-06-10T04:51:12.867Z,26
2019-06-10T04:52:09.345Z,31
2019-06-10T04:52:09.481Z,34
2019-06-10T04:52:44.967Z,37
2019-06-10T04:53:09.287Z,40
2019-06-10T04:53:43.383Z,27
2019-06-10T04:54:13.295Z,26
2019-06-10T04:54:42.102Z,30
2019-06-10T04:55:12.587Z,35
2019-06-10T04:55:45.520Z,35
2019-06-10T04:56:12.223Z,42
2019-06-10T04:58:06.293Z,-152
2019-06-10T04:58:06.331Z,48
2019-06-10T04:58:36.182Z,51
2019-06-10T04:58:36.206Z,56
2019-06-10T04:59:36.392Z,60
2019-06-10T05:00:11.134Z,55
2019-06-10T05:00:36.304Z,-44
2019-06-10T05:01:06.420Z,-43
2019-06-10T05:01:36.298Z,16
2019-06-10T05:02:06.362Z,73
2019-06-10T05:02:36.356Z,81
2019-06-10T05:03:06.388Z,89
2019-06-10T05:03:36.326Z,93
2019-06-10T05:04:06.336Z,91
2019-06-10T05:04:36.445Z,102
2019-06-10T05:05:06.477Z,114
2019-06-10T05:05:36.342Z,107
2019-06-10T05:06:06.376Z,116
2019-06-10T05:06:36.407Z,125
2019-06-10T05:07:06.375Z,145
2019-06-10T05:14:36.730Z,181
2019-06-10T05:17:06.746Z,175
2019-06-10T05:17:36.722Z,172
2019-06-10T05:19:06.883Z,160
2019-06-10T05:19:36.735Z,152
2019-06-10T05:20:06.742Z,148
2019-06-10T05:20:50.764Z,152
2019-06-10T05:21:06.707Z,155
2019-06-10T05:22:06.850Z,158
2019-06-10T05:22:36.723Z,162
2019-06-10T05:23:06.793Z,163
2019-06-10T05:23:36.707Z,163
2019-06-10T05:24:06.719Z,164
2019-06-10T05:24:36.715Z,163
2019-06-10T05:25:06.866Z,162
2019-06-10T05:25:36.743Z,157
2019-06-10T05:26:06.782Z,158
2019-06-10T05:26:36.773Z,153
2019-06-10T05:27:06.762Z,153
2019-06-10T05:27:36.943Z,151
2019-06-10T05:28:06.849Z,151
2019-06-10T05:28:36.801Z,146
2019-06-10T05:29:06.818Z,152
2019-06-10T05:29:36.836Z,159
2019-06-10T05:30:06.848Z,170
2019-06-10T05:30:37.026Z,166
2019-06-10T05:31:07.032Z,171
2019-06-10T05:31:36.947Z,185
2019-06-10T05:32:06.893Z,186
2019-06-10T05:32:36.916Z,189
2019-06-10T05:33:06.877Z,196
2019-06-10T05:33:36.946Z,196
2019-06-10T05:34:07.122Z,200
2019-06-10T05:34:36.941Z,205
2019-06-10T05:35:07.012Z,208
2019-06-10T05:35:37.071Z,206
2019-06-10T05:36:07.063Z,197
2019-06-10T05:36:37.039Z,206
2019-06-10T05:37:07.067Z,201
2019-06-10T05:37:37.011Z,201
2019-06-10T05:38:07.029Z,195
2019-06-10T05:38:37.164Z,195
2019-06-10T05:39:07.005Z,194
2019-06-10T05:39:37.178Z,191
2019-06-10T05:40:07.224Z,187
2019-06-10T05:40:37.173Z,184
2019-06-10T05:41:07.092Z,174
2019-06-10T05:41:37.164Z,170
2019-06-10T05:42:07.180Z,160
2019-06-10T05:42:37.161Z,157
2019-06-10T05:43:07.110Z,158
2019-06-10T05:43:37.235Z,152
2019-06-10T05:44:07.140Z,145
2019-06-10T05:44:37.147Z,142
2019-06-10T05:45:07.225Z,147
2019-06-10T05:45:37.314Z,145
2019-06-10T05:46:07.218Z,142
2019-06-10T05:46:37.222Z,139
2019-06-10T05:47:07.359Z,136
2019-06-10T05:47:37.290Z,128
2019-06-10T05:48:07.189Z,125
2019-06-10T05:48:37.283Z,133
2019-06-10T05:49:07.329Z,126
2019-06-10T05:49:37.298Z,129
2019-06-10T05:50:07.219Z,135
2019-06-10T05:50:37.252Z,136
2019-06-10T05:51:07.271Z,136
2019-06-10T05:51:37.305Z,138
2019-06-10T05:52:07.281Z,138
2019-06-10T05:52:37.458Z,142
2019-06-10T05:53:07.471Z,135
2019-06-10T05:53:37.378Z,141
2019-06-10T05:54:07.344Z,151
2019-06-10T05:54:37.442Z,151
2019-06-10T05:55:07.422Z,153
2019-06-10T05:55:37.473Z,155
2019-06-10T05:56:07.442Z,160
2019-06-10T05:56:37.461Z,147
2019-06-10T05:57:07.536Z,154
2019-06-10T05:58:07.488Z,141
2019-06-10T05:58:37.492Z,150
2019-06-10T05:59:07.482Z,150
2019-06-10T05:59:37.484Z,148
2019-06-10T06:00:11.954Z,142
2019-06-10T06:00:37.571Z,145
2019-06-10T06:01:07.599Z,137
2019-06-10T06:01:38.504Z,139
2019-06-10T06:02:07.577Z,132
2019-06-10T06:02:37.893Z,146
2019-06-10T06:03:07.635Z,140
2019-06-10T06:03:37.616Z,135
2019-06-10T06:04:07.592Z,134
2019-06-10T06:04:37.705Z,134
2019-06-10T06:05:07.683Z,130
2019-06-10T06:05:38.024Z,121
2019-06-10T06:06:07.622Z,120
2019-06-10T06:06:37.662Z,118
2019-06-10T06:07:07.598Z,129
2019-06-10T06:07:37.728Z,128
2019-06-10T06:08:08.679Z,121
2019-06-10T06:08:37.891Z,115
2019-06-10T06:09:07.765Z,118
2019-06-10T06:09:37.825Z,122
2019-06-10T06:10:07.728Z,119
2019-06-10T06:10:37.893Z,124
2019-06-10T06:11:07.745Z,119
2019-06-10T06:11:37.862Z,123
2019-06-10T06:12:11.000Z,103
2019-06-10T06:12:37.895Z,102
2019-06-10T06:13:07.765Z,100
2019-06-10T06:13:38.061Z,98
2019-06-10T06:14:07.860Z,110
2019-06-10T06:14:37.865Z,103
2019-06-10T06:15:07.890Z,109
2019-06-10T06:15:38.129Z,102
2019-06-10T06:16:07.895Z,106
2019-06-10T06:16:38.258Z,107
2019-06-10T06:17:07.911Z,104
2019-06-10T06:17:38.608Z,94
2019-06-10T06:18:10.548Z,93
2019-06-10T06:18:38.355Z,99
2019-06-10T06:19:07.925Z,99
2019-06-10T06:19:38.849Z,93
2019-06-10T06:20:07.994Z,95
2019-06-10T06:20:37.999Z,100
2019-06-10T06:21:22.181Z,94
2019-06-10T06:21:42.511Z,97
2019-06-10T06:22:07.965Z,91
2019-06-10T06:22:38.016Z,88
2019-06-10T06:23:09.065Z,92
2019-06-10T06:23:38.297Z,83
2019-06-10T06:24:08.116Z,97
2019-06-10T06:24:38.074Z,95
2019-06-10T06:25:08.119Z,88
2019-06-10T06:25:42.863Z,82
2019-06-10T06:26:08.133Z,84
2019-06-10T06:26:39.662Z,79
2019-06-10T06:27:08.033Z,79
2019-06-10T06:28:12.585Z,98
2019-06-10T06:28:42.961Z,93
2019-06-10T06:29:12.949Z,87
2019-06-10T06:29:42.952Z,87
2019-06-10T06:30:42.229Z,78
2019-06-10T06:31:12.635Z,89
2019-06-10T06:31:42.905Z,83
2019-06-10T06:32:13.047Z,86
2019-06-10T06:32:43.377Z,89
2019-06-10T06:33:13.330Z,87
2019-06-10T06:33:43.205Z,84
2019-06-10T06:34:13.375Z,83
2019-06-10T06:35:12.608Z,86
2019-06-10T06:35:43.496Z,81
2019-06-10T06:36:12.491Z,84
2019-06-10T06:36:42.221Z,85
2019-06-10T06:37:12.710Z,61
2019-06-10T06:37:42.748Z,77
2019-06-10T06:38:12.972Z,140
2019-06-10T06:38:43.568Z,18
2019-06-10T06:39:12.808Z,75
2019-06-10T06:39:42.845Z,67
2019-06-10T06:40:13.204Z,96
2019-06-10T06:40:43.443Z,90
2019-06-10T06:41:42.644Z,83
2019-06-10T06:42:12.652Z,91
2019-06-10T06:42:43.261Z,108
2019-06-10T06:43:12.022Z,88
2019-06-10T06:43:44.941Z,68
2019-06-10T06:44:12.896Z,88
2019-06-10T06:44:43.274Z,68
2019-06-10T06:45:12.148Z,88
2019-06-10T06:45:42.571Z,85
2019-06-10T06:46:12.793Z,67
2019-06-10T06:46:42.853Z,62
2019-06-10T06:47:13.169Z,70
2019-06-10T06:47:43.650Z,77
2019-06-10T06:48:12.288Z,81
2019-06-10T06:48:43.624Z,67
2019-06-10T06:49:12.741Z,65
2019-06-10T06:49:42.488Z,79
2019-06-10T06:50:13.013Z,44
2019-06-10T06:50:54.311Z,74
2019-06-10T06:51:12.907Z,73
2019-06-10T06:51:51.585Z,72
2019-06-10T06:52:12.775Z,52
2019-06-10T06:53:20.830Z,70
2019-06-10T06:53:48.047Z,71
2019-06-10T06:54:12.514Z,73
2019-06-10T06:54:42.424Z,74
2019-06-10T06:55:12.754Z,62
2019-06-10T06:55:43.268Z,76
2019-06-10T06:56:12.547Z,77
2019-06-10T06:56:43.631Z,72
2019-06-10T06:57:13.023Z,77
2019-06-10T07:15:13.152Z,84
2019-06-10T07:24:13.337Z,73
2019-06-10T07:24:47.254Z,75
2019-06-10T07:25:13.382Z,82
2019-06-10T07:25:47.079Z,76
2019-06-10T07:26:13.444Z,75
2019-06-10T07:26:50.509Z,72
2019-06-10T07:27:13.437Z,69
2019-06-10T07:27:45.021Z,62
2019-06-10T07:28:13.430Z,64
2019-06-10T07:28:46.703Z,61
2019-06-10T07:29:13.492Z,66
2019-06-10T07:29:46.568Z,76
2019-06-10T07:30:15.055Z,75
2019-06-10T07:30:50.957Z,69
2019-06-10T07:31:22.974Z,89
2019-06-10T07:32:13.504Z,57
2019-06-10T07:32:46.959Z,87
2019-06-10T07:33:13.524Z,74
2019-06-10T07:33:45.686Z,66
2019-06-10T07:34:13.590Z,63
2019-06-10T07:34:46.735Z,58
2019-06-10T07:35:13.537Z,62
2019-06-10T07:35:45.058Z,68
2019-06-10T07:36:13.625Z,66
2019-06-10T07:36:45.411Z,74
2019-06-10T07:37:13.707Z,60
2019-06-10T07:37:44.440Z,66
2019-06-10T07:38:13.596Z,64
2019-06-10T07:38:48.562Z,63
2019-06-10T07:39:13.762Z,40
2019-06-10T07:39:45.264Z,37
2019-06-10T07:40:13.765Z,44
2019-06-10T07:40:45.643Z,63
2019-06-10T07:41:13.703Z,67
2019-06-10T07:41:47.319Z,55
2019-06-10T07:42:13.719Z,61
2019-06-10T07:42:45.389Z,70
2019-06-10T07:43:13.697Z,82
2019-06-10T07:43:49.084Z,79
2019-06-10T07:44:13.781Z,70
2019-06-10T07:44:45.201Z,65
2019-06-10T07:45:13.902Z,89
2019-06-10T07:45:47.679Z,58
2019-06-10T07:46:13.829Z,95
2019-06-10T07:46:45.247Z,102
2019-06-10T07:47:13.847Z,72
2019-06-10T07:47:45.218Z,73
2019-06-10T07:48:13.962Z,97
2019-06-10T07:48:47.656Z,75
2019-06-10T07:49:13.960Z,83
2019-06-10T07:49:44.237Z,65
2019-06-10T07:50:13.863Z,74
2019-06-10T07:50:45.284Z,54
2019-06-10T07:51:14.039Z,68
2019-06-10T07:51:46.251Z,76
2019-06-10T07:52:19.344Z,70
2019-06-10T07:52:46.524Z,86
2019-06-10T07:53:13.962Z,63
2019-06-10T07:53:46.535Z,76
2019-06-10T07:54:13.918Z,74
2019-06-10T07:54:44.966Z,49
2019-06-10T07:55:13.970Z,70
2019-06-10T07:55:46.380Z,63
2019-06-10T07:56:14.129Z,95
2019-06-10T07:56:49.783Z,96
2019-06-10T07:57:14.129Z,63
2019-06-10T07:58:14.477Z,62
2019-06-10T07:58:47.385Z,71
2019-06-10T07:59:14.204Z,56
2019-06-10T07:59:45.745Z,47
2019-06-10T08:00:14.075Z,68
2019-06-10T08:00:48.013Z,64
2019-06-10T08:01:14.057Z,58
2019-06-10T08:01:50.741Z,62
2019-06-10T08:02:14.391Z,77
2019-06-10T08:02:45.939Z,77
2019-06-10T08:03:14.087Z,77
2019-06-10T08:03:46.085Z,82
2019-06-10T08:04:14.132Z,67
2019-06-10T08:04:45.925Z,61
2019-06-10T08:05:14.143Z,73
2019-06-10T08:05:46.021Z,77
2019-06-10T08:06:14.166Z,74
2019-06-10T08:06:45.678Z,69
2019-06-10T08:07:14.183Z,68
2019-06-10T08:07:47.112Z,74
2019-06-10T08:08:14.249Z,74
2019-06-10T08:08:45.343Z,71
2019-06-10T08:09:14.327Z,68
2019-06-10T08:09:45.589Z,72
2019-06-10T08:10:14.291Z,66
2019-06-10T08:10:46.007Z,66
2019-06-10T08:11:14.297Z,81
2019-06-10T08:11:46.769Z,64
2019-06-10T08:12:14.362Z,61
2019-06-10T08:12:46.493Z,78
2019-06-10T08:13:14.429Z,67
2019-06-10T08:13:46.081Z,71
2019-06-10T08:14:14.420Z,58
2019-06-10T08:14:45.683Z,55
2019-06-10T08:15:14.495Z,66
2019-06-10T08:15:45.952Z,58
2019-06-10T08:16:14.437Z,63
2019-06-10T08:16:46.464Z,55
2019-06-10T08:17:14.493Z,52
2019-06-10T08:17:45.674Z,45
2019-06-10T08:18:14.569Z,41
2019-06-10T08:18:56.600Z,32
2019-06-10T08:19:29.238Z,31
2019-06-10T08:19:49.366Z,30
2019-06-10T08:20:14.480Z,26
2019-06-10T08:20:45.205Z,30
2019-06-10T08:21:14.506Z,31
2019-06-10T08:21:47.822Z,34
2019-06-10T08:22:27.574Z,37
2019-06-10T08:22:50.679Z,32
2019-06-10T08:23:14.643Z,34
2019-06-10T08:23:46.521Z,36
2019-06-10T08:24:14.564Z,36
2019-06-10T08:24:45.337Z,45
2019-06-10T08:25:14.690Z,48
2019-06-10T08:25:47.736Z,49
2019-06-10T08:26:14.688Z,55
2019-06-10T08:26:45.659Z,58
2019-06-10T08:27:14.687Z,62
2019-06-10T08:27:47.034Z,70
2019-06-10T08:28:14.702Z,75
2019-06-10T08:28:46.411Z,85
2019-06-10T08:29:14.806Z,81
2019-06-10T08:29:47.972Z,80
2019-06-10T08:30:22.453Z,93
2019-06-10T08:30:46.040Z,99
2019-06-10T08:31:14.796Z,105
2019-06-10T08:31:48.065Z,108
2019-06-10T08:32:14.815Z,91
2019-06-10T08:32:46.782Z,92
2019-06-10T08:33:14.978Z,71
2019-06-10T08:33:47.075Z,43
2019-06-10T08:34:14.836Z,60
2019-06-10T08:34:46.605Z,84
2019-06-10T08:35:14.919Z,78
2019-06-10T08:35:51.958Z,71
2019-06-10T08:36:14.908Z,70
2019-06-10T08:36:46.930Z,78
2019-06-10T08:37:14.988Z,67
2019-06-10T08:37:45.987Z,70
2019-06-10T08:38:14.923Z,60
2019-06-10T08:38:46.721Z,54
2019-06-10T08:39:15.871Z,39
2019-06-10T08:39:45.973Z,37
2019-06-10T08:40:15.088Z,35
2019-06-10T08:40:46.454Z,30
2019-06-10T08:41:15.039Z,29
2019-06-10T08:41:47.119Z,20
2019-06-10T08:42:14.993Z,17
2019-06-10T08:42:47.247Z,9
2019-06-10T08:43:14.954Z,13
2019-06-10T08:43:46.515Z,11
2019-06-10T08:44:15.089Z,8
2019-06-10T08:44:47.077Z,-16
2019-06-10T08:45:15.045Z,-16
2019-06-10T08:45:46.755Z,-11
2019-06-10T08:46:15.044Z,2
2019-06-10T08:46:46.839Z,-4
2019-06-10T08:47:15.113Z,-13
2019-06-10T08:47:46.933Z,0
2019-06-10T08:48:15.339Z,3
2019-06-10T08:48:47.663Z,15
2019-06-10T08:49:15.126Z,15
2019-06-10T08:49:46.131Z,23
2019-06-10T08:50:15.167Z,34
2019-06-10T08:50:48.300Z,26
2019-06-10T08:51:15.248Z,36
2019-06-10T08:51:48.077Z,31
2019-06-10T08:52:15.211Z,34
2019-06-10T08:53:03.191Z,40
2019-06-10T08:53:18.074Z,45
2019-06-10T08:53:46.860Z,43
2019-06-10T08:54:15.218Z,52
2019-06-10T08:54:47.571Z,56
2019-06-10T08:55:15.453Z,61
2019-06-10T08:55:47.575Z,61
2019-06-10T08:56:15.462Z,44
2019-06-10T08:56:48.694Z,43
2019-06-10T08:57:15.489Z,54
2019-06-10T08:57:47.432Z,32
2019-06-10T08:58:15.558Z,38
2019-06-10T08:58:48.842Z,21
2019-06-10T08:59:15.484Z,23
2019-06-10T08:59:47.457Z,11
2019-06-10T09:00:18.563Z,13
2019-06-10T09:00:48.097Z,-14
2019-06-10T09:01:15.524Z,-18
2019-06-10T09:01:46.744Z,-20
2019-06-10T09:02:15.506Z,-14
2019-06-10T09:02:48.330Z,-7
2019-06-10T09:03:15.816Z,5
2019-06-10T09:03:47.681Z,13
2019-06-10T09:04:15.605Z,21
2019-06-10T09:04:48.536Z,28
2019-06-10T09:05:15.591Z,18
2019-06-10T09:05:47.736Z,26
2019-06-10T09:06:15.769Z,38
2019-06-10T09:06:47.895Z,22
2019-06-10T09:07:15.893Z,31
2019-06-10T09:07:49.365Z,33
2019-06-10T09:08:15.712Z,50
2019-06-10T09:08:49.506Z,58
2019-06-10T09:09:15.669Z,62
2019-06-10T09:39:16.795Z,85
2019-06-10T09:42:16.721Z,86
2019-06-10T09:45:16.761Z,67
2019-06-10T09:46:16.726Z,64
2019-06-10T09:46:48.648Z,80
2019-06-10T09:48:49.714Z,94
2019-06-10T09:49:16.776Z,93
2019-06-10T09:49:48.535Z,75
2019-06-10T09:50:16.768Z,80
2019-06-10T09:50:50.554Z,75
2019-06-10T09:51:16.843Z,81
2019-06-10T09:51:49.872Z,81
2019-06-10T09:52:16.727Z,62
2019-06-10T09:52:50.416Z,59
2019-06-10T09:53:29.155Z,60
2019-06-10T09:53:52.266Z,64
2019-06-10T09:54:16.822Z,66
2019-06-10T09:54:50.257Z,72
2019-06-10T09:55:16.820Z,85
2019-06-10T09:55:49.652Z,73
2019-06-10T09:56:16.964Z,75
2019-06-10T09:56:48.461Z,68
2019-06-10T09:57:16.860Z,67
2019-06-10T09:57:48.912Z,72
2019-06-10T09:58:16.950Z,83
2019-06-10T09:58:49.022Z,68